sensor_id;sensor_type;location;lat;lon;timestamp;pressure;altitude;pressure_sealevel;temperature;humidity
76448;BME280;65284;51.040;13.722;2023-04-30T00:02:08;100242.53;;;10.57;78.19
76448;BME280;65284;51.040;13.722;2023-04-30T00:04:34;100234.56;;;10.57;78.17
76448;BME280;65284;51.040;13.722;2023-04-30T00:07:01;100242.53;;;10.57;78.52
76448;BME280;65284;51.040;13.722;2023-04-30T00:09:27;100249.28;;;10.51;78.34
76448;BME280;65284;51.040;13.722;2023-04-30T00:11:54;100253.78;;;10.51;78.52
76448;BME280;65284;51.040;13.722;2023-04-30T00:14:21;100246.47;;;10.53;78.53
76448;BME280;65284;51.040;13.722;2023-04-30T00:16:47;100255.13;;;10.55;78.51
76448;BME280;65284;51.040;13.722;2023-04-30T00:19:14;100251.63;;;10.54;78.49
76448;BME280;65284;51.040;13.722;2023-04-30T00:21:40;100244.28;;;10.48;78.65
76448;BME280;65284;51.040;13.722;2023-04-30T00:24:07;100258.69;;;10.45;78.62
76448;BME280;65284;51.040;13.722;2023-04-30T00:26:34;100259.84;;;10.43;78.54
76448;BME280;65284;51.040;13.722;2023-04-30T00:29:00;100268.94;;;10.40;78.46
76448;BME280;65284;51.040;13.722;2023-04-30T00:31:27;100254.06;;;10.47;77.91
76448;BME280;65284;51.040;13.722;2023-04-30T00:33:53;100266.16;;;10.42;77.81
76448;BME280;65284;51.040;13.722;2023-04-30T00:36:20;100275.94;;;10.41;77.18
76448;BME280;65284;51.040;13.722;2023-04-30T00:38:46;100271.38;;;10.34;77.15
76448;BME280;65284;51.040;13.722;2023-04-30T00:41:13;100269.03;;;10.31;77.42
76448;BME280;65284;51.040;13.722;2023-04-30T00:43:39;100271.81;;;10.29;77.50
76448;BME280;65284;51.040;13.722;2023-04-30T00:46:06;100274.41;;;10.21;77.80
76448;BME280;65284;51.040;13.722;2023-04-30T00:48:32;100268.09;;;10.22;77.57
76448;BME280;65284;51.040;13.722;2023-04-30T00:51:01;100289.53;;;10.11;77.46
76448;BME280;65284;51.040;13.722;2023-04-30T00:53:27;100278.09;;;10.10;77.54
76448;BME280;65284;51.040;13.722;2023-04-30T00:55:54;100284.84;;;10.05;78.09
76448;BME280;65284;51.040;13.722;2023-04-30T00:58:21;100290.75;;;9.98;77.99
76448;BME280;65284;51.040;13.722;2023-04-30T01:00:48;100278.81;;;9.85;78.49
76448;BME280;65284;51.040;13.722;2023-04-30T01:03:15;100301.22;;;9.82;78.72
76448;BME280;65284;51.040;13.722;2023-04-30T01:05:42;100296.19;;;9.79;78.55
76448;BME280;65284;51.040;13.722;2023-04-30T01:08:09;100291.44;;;9.83;78.07
76448;BME280;65284;51.040;13.722;2023-04-30T01:10:55;100295.41;;;9.69;78.64
76448;BME280;65284;51.040;13.722;2023-04-30T01:13:36;100305.78;;;9.62;78.75
76448;BME280;65284;51.040;13.722;2023-04-30T01:16:13;100300.22;;;9.55;79.03
76448;BME280;65284;51.040;13.722;2023-04-30T01:18:55;100304.13;;;9.51;79.31
76448;BME280;65284;51.040;13.722;2023-04-30T01:21:23;100302.78;;;9.47;80.21
76448;BME280;65284;51.040;13.722;2023-04-30T01:24:23;100305.03;;;9.42;80.32
76448;BME280;65284;51.040;13.722;2023-04-30T01:27:06;100315.91;;;9.39;80.59
76448;BME280;65284;51.040;13.722;2023-04-30T01:29:38;100307.56;;;9.34;81.00
76448;BME280;65284;51.040;13.722;2023-04-30T01:32:04;100311.78;;;9.27;81.40
76448;BME280;65284;51.040;13.722;2023-04-30T01:34:31;100315.41;;;9.26;81.94
76448;BME280;65284;51.040;13.722;2023-04-30T01:42:31;100320.91;;;9.15;81.93
76448;BME280;65284;51.040;13.722;2023-04-30T01:47:56;100330.78;;;9.13;81.80
76448;BME280;65284;51.040;13.722;2023-04-30T01:50:37;100335.56;;;8.99;81.99
76448;BME280;65284;51.040;13.722;2023-04-30T01:53:12;100336.00;;;8.95;81.94
76448;BME280;65284;51.040;13.722;2023-04-30T01:55:43;100345.06;;;8.92;82.25
76448;BME280;65284;51.040;13.722;2023-04-30T01:58:14;100348.00;;;8.89;81.64
76448;BME280;65284;51.040;13.722;2023-04-30T02:00:40;100346.91;;;8.82;81.82
76448;BME280;65284;51.040;13.722;2023-04-30T02:03:07;100355.94;;;8.79;81.60
76448;BME280;65284;51.040;13.722;2023-04-30T02:05:34;100357.75;;;8.69;81.57
76448;BME280;65284;51.040;13.722;2023-04-30T02:08:00;100364.59;;;8.62;81.52
76448;BME280;65284;51.040;13.722;2023-04-30T02:10:27;100367.66;;;8.67;81.15
76448;BME280;65284;51.040;13.722;2023-04-30T02:12:55;100372.25;;;8.65;80.88
76448;BME280;65284;51.040;13.722;2023-04-30T02:15:21;100382.03;;;8.55;80.85
76448;BME280;65284;51.040;13.722;2023-04-30T02:17:48;100386.06;;;8.49;80.84
76448;BME280;65284;51.040;13.722;2023-04-30T02:20:15;100392.88;;;8.52;80.73
76448;BME280;65284;51.040;13.722;2023-04-30T02:22:41;100390.78;;;8.46;80.53
76448;BME280;65284;51.040;13.722;2023-04-30T02:25:08;100399.69;;;8.45;80.45
76448;BME280;65284;51.040;13.722;2023-04-30T02:27:36;100389.75;;;8.37;80.86
76448;BME280;65284;51.040;13.722;2023-04-30T02:30:03;100395.31;;;8.24;80.86
76448;BME280;65284;51.040;13.722;2023-04-30T02:32:30;100407.72;;;8.24;80.98
76448;BME280;65284;51.040;13.722;2023-04-30T02:34:57;100404.06;;;8.25;80.92
76448;BME280;65284;51.040;13.722;2023-04-30T02:37:23;100418.00;;;8.17;81.06
76448;BME280;65284;51.040;13.722;2023-04-30T02:39:50;100412.16;;;8.13;81.06
76448;BME280;65284;51.040;13.722;2023-04-30T02:42:17;100409.34;;;8.05;81.12
76448;BME280;65284;51.040;13.722;2023-04-30T02:44:43;100418.75;;;7.98;81.31
76448;BME280;65284;51.040;13.722;2023-04-30T02:47:10;100412.25;;;8.02;81.51
76448;BME280;65284;51.040;13.722;2023-04-30T02:49:36;100416.13;;;7.98;81.24
76448;BME280;65284;51.040;13.722;2023-04-30T02:52:03;100420.00;;;7.94;81.45
76448;BME280;65284;51.040;13.722;2023-04-30T02:54:29;100425.31;;;7.94;81.45
76448;BME280;65284;51.040;13.722;2023-04-30T02:56:56;100438.34;;;7.86;81.79
76448;BME280;65284;51.040;13.722;2023-04-30T02:59:23;100425.56;;;7.91;81.16
76448;BME280;65284;51.040;13.722;2023-04-30T03:01:49;100434.34;;;7.91;81.32
76448;BME280;65284;51.040;13.722;2023-04-30T03:04:16;100439.06;;;7.88;81.63
76448;BME280;65284;51.040;13.722;2023-04-30T03:06:42;100440.16;;;7.85;81.04
76448;BME280;65284;51.040;13.722;2023-04-30T03:09:09;100442.63;;;7.77;81.53
76448;BME280;65284;51.040;13.722;2023-04-30T03:11:36;100450.97;;;7.72;81.77
76448;BME280;65284;51.040;13.722;2023-04-30T03:14:03;100451.75;;;7.63;81.58
76448;BME280;65284;51.040;13.722;2023-04-30T03:16:30;100454.06;;;7.57;82.40
76448;BME280;65284;51.040;13.722;2023-04-30T03:18:56;100456.41;;;7.50;82.53
76448;BME280;65284;51.040;13.722;2023-04-30T03:21:23;100458.31;;;7.48;81.80
76448;BME280;65284;51.040;13.722;2023-04-30T03:23:50;100467.69;;;7.52;81.95
76448;BME280;65284;51.040;13.722;2023-04-30T03:26:17;100466.69;;;7.53;81.98
76448;BME280;65284;51.040;13.722;2023-04-30T03:28:43;100465.34;;;7.38;81.83
76448;BME280;65284;51.040;13.722;2023-04-30T03:31:09;100464.66;;;7.36;82.25
76448;BME280;65284;51.040;13.722;2023-04-30T03:33:36;100469.66;;;7.39;82.26
76448;BME280;65284;51.040;13.722;2023-04-30T03:36:03;100475.72;;;7.29;82.37
76448;BME280;65284;51.040;13.722;2023-04-30T03:38:29;100479.88;;;7.22;82.14
76448;BME280;65284;51.040;13.722;2023-04-30T03:40:56;100475.66;;;7.20;82.23
76448;BME280;65284;51.040;13.722;2023-04-30T03:43:22;100479.28;;;7.19;82.42
76448;BME280;65284;51.040;13.722;2023-04-30T03:45:49;100475.72;;;7.09;82.38
76448;BME280;65284;51.040;13.722;2023-04-30T03:48:16;100483.53;;;7.10;82.44
76448;BME280;65284;51.040;13.722;2023-04-30T03:50:43;100480.75;;;7.12;82.79
76448;BME280;65284;51.040;13.722;2023-04-30T03:53:09;100483.28;;;7.13;82.29
76448;BME280;65284;51.040;13.722;2023-04-30T03:55:36;100491.44;;;7.10;82.42
76448;BME280;65284;51.040;13.722;2023-04-30T03:58:03;100485.22;;;7.00;82.50
76448;BME280;65284;51.040;13.722;2023-04-30T04:00:29;100497.25;;;7.04;82.39
76448;BME280;65284;51.040;13.722;2023-04-30T04:02:57;100492.53;;;7.07;82.47
76448;BME280;65284;51.040;13.722;2023-04-30T04:05:24;100494.72;;;7.02;82.71
76448;BME280;65284;51.040;13.722;2023-04-30T04:07:51;100498.19;;;7.03;82.72
76448;BME280;65284;51.040;13.722;2023-04-30T04:10:18;100493.72;;;7.03;82.55
76448;BME280;65284;51.040;13.722;2023-04-30T04:12:44;100501.66;;;7.03;82.45
76448;BME280;65284;51.040;13.722;2023-04-30T04:15:11;100510.91;;;6.98;82.70
76448;BME280;65284;51.040;13.722;2023-04-30T04:17:38;100511.16;;;6.95;82.66
76448;BME280;65284;51.040;13.722;2023-04-30T04:20:05;100510.34;;;6.94;83.03
76448;BME280;65284;51.040;13.722;2023-04-30T04:22:32;100518.41;;;6.93;82.92
76448;BME280;65284;51.040;13.722;2023-04-30T04:24:59;100517.66;;;6.91;82.68
76448;BME280;65284;51.040;13.722;2023-04-30T04:27:25;100517.66;;;6.91;82.81
76448;BME280;65284;51.040;13.722;2023-04-30T04:29:52;100524.88;;;6.89;82.86
76448;BME280;65284;51.040;13.722;2023-04-30T04:32:20;100530.63;;;6.94;82.59
76448;BME280;65284;51.040;13.722;2023-04-30T04:34:48;100528.81;;;6.94;82.77
76448;BME280;65284;51.040;13.722;2023-04-30T04:37:14;100538.53;;;6.94;82.66
76448;BME280;65284;51.040;13.722;2023-04-30T04:39:42;100549.97;;;6.83;82.95
76448;BME280;65284;51.040;13.722;2023-04-30T04:42:10;100543.81;;;6.94;82.36
76448;BME280;65284;51.040;13.722;2023-04-30T04:44:37;100550.66;;;6.96;82.39
76448;BME280;65284;51.040;13.722;2023-04-30T04:47:04;100556.19;;;6.93;82.10
76448;BME280;65284;51.040;13.722;2023-04-30T04:49:31;100561.22;;;6.96;82.29
76448;BME280;65284;51.040;13.722;2023-04-30T04:51:58;100557.75;;;6.96;82.46
76448;BME280;65284;51.040;13.722;2023-04-30T04:54:24;100564.84;;;6.95;82.21
76448;BME280;65284;51.040;13.722;2023-04-30T04:56:51;100561.84;;;6.89;82.39
76448;BME280;65284;51.040;13.722;2023-04-30T04:59:17;100573.59;;;6.96;82.20
76448;BME280;65284;51.040;13.722;2023-04-30T05:01:44;100563.69;;;7.09;81.49
76448;BME280;65284;51.040;13.722;2023-04-30T05:04:10;100565.66;;;7.07;81.77
76448;BME280;65284;51.040;13.722;2023-04-30T05:06:39;100572.59;;;7.08;81.57
76448;BME280;65284;51.040;13.722;2023-04-30T05:09:06;100580.06;;;7.03;81.81
76448;BME280;65284;51.040;13.722;2023-04-30T05:11:34;100582.69;;;7.03;81.48
76448;BME280;65284;51.040;13.722;2023-04-30T05:14:01;100577.19;;;6.95;81.76
76448;BME280;65284;51.040;13.722;2023-04-30T05:16:28;100585.09;;;7.06;81.88
76448;BME280;65284;51.040;13.722;2023-04-30T05:18:54;100582.94;;;7.00;81.84
76448;BME280;65284;51.040;13.722;2023-04-30T05:21:21;100588.19;;;7.11;81.29
76448;BME280;65284;51.040;13.722;2023-04-30T05:23:48;100595.41;;;7.09;81.54
76448;BME280;65284;51.040;13.722;2023-04-30T05:26:14;100590.13;;;7.09;81.13
76448;BME280;65284;51.040;13.722;2023-04-30T05:28:41;100605.03;;;6.99;81.46
76448;BME280;65284;51.040;13.722;2023-04-30T05:31:08;100600.09;;;7.05;81.50
76448;BME280;65284;51.040;13.722;2023-04-30T05:33:34;100602.16;;;7.02;81.41
76448;BME280;65284;51.040;13.722;2023-04-30T05:36:02;100606.47;;;6.92;81.67
76448;BME280;65284;51.040;13.722;2023-04-30T05:38:29;100605.03;;;6.99;81.23
76448;BME280;65284;51.040;13.722;2023-04-30T05:40:55;100596.38;;;6.97;81.34
76448;BME280;65284;51.040;13.722;2023-04-30T05:43:22;100600.59;;;6.99;81.36
76448;BME280;65284;51.040;13.722;2023-04-30T05:45:48;100604.19;;;6.98;81.13
76448;BME280;65284;51.040;13.722;2023-04-30T05:48:15;100610.66;;;7.05;80.71
76448;BME280;65284;51.040;13.722;2023-04-30T05:50:41;100613.28;;;7.05;80.76
76448;BME280;65284;51.040;13.722;2023-04-30T05:53:08;100609.31;;;7.11;80.60
76448;BME280;65284;51.040;13.722;2023-04-30T05:55:35;100618.16;;;7.21;80.03
76448;BME280;65284;51.040;13.722;2023-04-30T05:58:01;100615.19;;;7.15;80.30
76448;BME280;65284;51.040;13.722;2023-04-30T06:00:28;100607.59;;;7.21;79.89
76448;BME280;65284;51.040;13.722;2023-04-30T06:02:54;100608.91;;;7.27;80.22
76448;BME280;65284;51.040;13.722;2023-04-30T06:05:21;100617.81;;;7.26;79.78
76448;BME280;65284;51.040;13.722;2023-04-30T06:07:47;100622.94;;;7.39;79.26
76448;BME280;65284;51.040;13.722;2023-04-30T06:10:14;100612.84;;;7.44;79.32
76448;BME280;65284;51.040;13.722;2023-04-30T06:12:40;100612.47;;;7.48;79.08
76448;BME280;65284;51.040;13.722;2023-04-30T06:15:07;100613.47;;;7.57;78.05
76448;BME280;65284;51.040;13.722;2023-04-30T06:17:33;100627.06;;;7.64;78.46
76448;BME280;65284;51.040;13.722;2023-04-30T06:20:00;100617.81;;;7.58;78.71
76448;BME280;65284;51.040;13.722;2023-04-30T06:22:32;100614.16;;;7.70;78.00
76448;BME280;65284;51.040;13.722;2023-04-30T06:24:59;100615.19;;;7.79;77.72
76448;BME280;65284;51.040;13.722;2023-04-30T06:27:26;100610.94;;;7.88;77.64
76448;BME280;65284;51.040;13.722;2023-04-30T06:29:53;100618.63;;;7.91;77.41
76448;BME280;65284;51.040;13.722;2023-04-30T06:32:20;100617.75;;;8.02;76.98
76448;BME280;65284;51.040;13.722;2023-04-30T06:34:46;100622.00;;;7.93;76.84
76448;BME280;65284;51.040;13.722;2023-04-30T06:37:13;100619.16;;;7.85;76.63
76448;BME280;65284;51.040;13.722;2023-04-30T06:39:39;100612.25;;;7.93;75.60
76448;BME280;65284;51.040;13.722;2023-04-30T06:42:06;100616.09;;;7.89;75.95
76448;BME280;65284;51.040;13.722;2023-04-30T06:44:32;100620.81;;;7.86;76.87
76448;BME280;65284;51.040;13.722;2023-04-30T06:46:58;100613.03;;;7.84;76.76
76448;BME280;65284;51.040;13.722;2023-04-30T06:49:26;100617.13;;;7.98;76.78
76448;BME280;65284;51.040;13.722;2023-04-30T06:51:52;100612.63;;;8.10;76.12
76448;BME280;65284;51.040;13.722;2023-04-30T06:54:20;100622.41;;;8.19;75.31
76448;BME280;65284;51.040;13.722;2023-04-30T06:56:48;100613.44;;;8.10;74.85
76448;BME280;65284;51.040;13.722;2023-04-30T06:59:14;100626.34;;;8.25;74.93
76448;BME280;65284;51.040;13.722;2023-04-30T07:01:40;100619.66;;;8.20;74.48
76448;BME280;65284;51.040;13.722;2023-04-30T07:04:07;100617.47;;;8.26;74.55
76448;BME280;65284;51.040;13.722;2023-04-30T07:06:33;100622.78;;;8.35;72.92
76448;BME280;65284;51.040;13.722;2023-04-30T07:09:01;100623.03;;;8.43;73.61
76448;BME280;65284;51.040;13.722;2023-04-30T07:11:27;100627.38;;;8.54;74.05
76448;BME280;65284;51.040;13.722;2023-04-30T07:13:53;100630.84;;;8.34;73.31
76448;BME280;65284;51.040;13.722;2023-04-30T07:16:20;100629.41;;;8.41;73.52
76448;BME280;65284;51.040;13.722;2023-04-30T07:18:46;100632.09;;;8.30;74.56
76448;BME280;65284;51.040;13.722;2023-04-30T07:21:17;100630.72;;;8.35;73.62
76448;BME280;65284;51.040;13.722;2023-04-30T07:23:43;100626.34;;;8.46;73.08
76448;BME280;65284;51.040;13.722;2023-04-30T07:26:10;100624.41;;;8.27;73.94
76448;BME280;65284;51.040;13.722;2023-04-30T07:28:37;100625.81;;;8.31;73.37
76448;BME280;65284;51.040;13.722;2023-04-30T07:31:03;100624.03;;;8.52;72.25
76448;BME280;65284;51.040;13.722;2023-04-30T07:33:30;100631.38;;;8.49;72.97
76448;BME280;65284;51.040;13.722;2023-04-30T07:35:56;100622.50;;;8.29;73.32
76448;BME280;65284;51.040;13.722;2023-04-30T07:38:23;100624.72;;;8.33;73.88
76448;BME280;65284;51.040;13.722;2023-04-30T07:40:50;100634.28;;;8.46;73.29
76448;BME280;65284;51.040;13.722;2023-04-30T07:43:16;100631.00;;;8.53;73.09
76448;BME280;65284;51.040;13.722;2023-04-30T07:45:43;100642.94;;;8.48;73.00
76448;BME280;65284;51.040;13.722;2023-04-30T07:48:10;100642.41;;;8.54;72.73
76448;BME280;65284;51.040;13.722;2023-04-30T07:50:36;100642.72;;;8.60;72.94
76448;BME280;65284;51.040;13.722;2023-04-30T07:53:03;100645.63;;;8.57;73.02
76448;BME280;65284;51.040;13.722;2023-04-30T07:55:32;100642.41;;;8.54;72.51
76448;BME280;65284;51.040;13.722;2023-04-30T07:57:58;100641.31;;;8.56;71.76
76448;BME280;65284;51.040;13.722;2023-04-30T08:00:25;100653.41;;;8.80;71.97
76448;BME280;65284;51.040;13.722;2023-04-30T08:02:51;100654.47;;;8.68;72.37
76448;BME280;65284;51.040;13.722;2023-04-30T08:05:18;100654.38;;;8.79;72.86
76448;BME280;65284;51.040;13.722;2023-04-30T08:07:45;100654.81;;;8.84;72.42
76448;BME280;65284;51.040;13.722;2023-04-30T08:10:11;100651.78;;;8.98;71.49
76448;BME280;65284;51.040;13.722;2023-04-30T08:12:37;100649.13;;;8.98;71.12
76448;BME280;65284;51.040;13.722;2023-04-30T08:15:05;100646.00;;;9.24;71.14
76448;BME280;65284;51.040;13.722;2023-04-30T08:17:33;100651.03;;;9.27;71.45
76448;BME280;65284;51.040;13.722;2023-04-30T08:20:01;100650.47;;;9.23;71.32
76448;BME280;65284;51.040;13.722;2023-04-30T08:22:29;100653.13;;;9.33;71.02
76448;BME280;65284;51.040;13.722;2023-04-30T08:24:55;100651.03;;;9.17;70.18
76448;BME280;65284;51.040;13.722;2023-04-30T08:27:22;100652.44;;;9.31;70.54
76448;BME280;65284;51.040;13.722;2023-04-30T08:29:48;100651.03;;;9.17;70.04
76448;BME280;65284;51.040;13.722;2023-04-30T08:32:15;100652.41;;;9.21;70.41
76448;BME280;65284;51.040;13.722;2023-04-30T08:34:41;100662.56;;;9.06;70.61
76448;BME280;65284;51.040;13.722;2023-04-30T08:37:08;100654.34;;;9.09;70.28
76448;BME280;65284;51.040;13.722;2023-04-30T08:39:35;100653.25;;;9.22;70.22
76448;BME280;65284;51.040;13.722;2023-04-30T08:42:03;100659.66;;;9.19;69.91
76448;BME280;65284;51.040;13.722;2023-04-30T08:44:33;100657.84;;;9.20;70.26
76448;BME280;65284;51.040;13.722;2023-04-30T08:47:02;100665.00;;;9.29;70.03
76448;BME280;65284;51.040;13.722;2023-04-30T08:49:29;100658.16;;;9.36;69.96
76448;BME280;65284;51.040;13.722;2023-04-30T08:51:59;100667.47;;;9.21;69.79
76448;BME280;65284;51.040;13.722;2023-04-30T08:54:27;100673.63;;;9.31;69.11
76448;BME280;65284;51.040;13.722;2023-04-30T08:56:55;100661.25;;;9.41;68.67
76448;BME280;65284;51.040;13.722;2023-04-30T08:59:22;100653.19;;;9.52;69.29
76448;BME280;65284;51.040;13.722;2023-04-30T09:01:49;100660.09;;;9.34;69.75
76448;BME280;65284;51.040;13.722;2023-04-30T09:04:19;100665.28;;;9.26;69.82
76448;BME280;65284;51.040;13.722;2023-04-30T09:06:45;100648.75;;;9.13;69.09
76448;BME280;65284;51.040;13.722;2023-04-30T09:09:13;100666.59;;;9.10;69.86
76448;BME280;65284;51.040;13.722;2023-04-30T09:11:40;100667.19;;;9.14;69.95
76448;BME280;65284;51.040;13.722;2023-04-30T09:14:07;100657.47;;;9.34;69.83
76448;BME280;65284;51.040;13.722;2023-04-30T09:16:49;100661.38;;;9.30;68.67
76448;BME280;65284;51.040;13.722;2023-04-30T09:19:26;100664.44;;;9.35;68.79
76448;BME280;65284;51.040;13.722;2023-04-30T09:21:53;100664.72;;;9.32;66.86
76448;BME280;65284;51.040;13.722;2023-04-30T09:24:19;100663.63;;;9.44;66.45
76448;BME280;65284;51.040;13.722;2023-04-30T09:26:46;100659.72;;;9.48;66.51
76448;BME280;65284;51.040;13.722;2023-04-30T09:29:13;100655.81;;;9.62;66.74
76448;BME280;65284;51.040;13.722;2023-04-30T09:31:45;100657.50;;;9.73;66.60
76448;BME280;65284;51.040;13.722;2023-04-30T09:34:13;100665.59;;;9.81;66.85
76448;BME280;65284;51.040;13.722;2023-04-30T09:36:52;100664.19;;;9.57;67.26
76448;BME280;65284;51.040;13.722;2023-04-30T09:39:20;100664.47;;;9.54;67.17
76448;BME280;65284;51.040;13.722;2023-04-30T09:41:49;100667.25;;;9.72;65.08
76448;BME280;65284;51.040;13.722;2023-04-30T09:46:52;100655.81;;;9.72;64.83
76448;BME280;65284;51.040;13.722;2023-04-30T09:49:19;100643.56;;;9.71;64.73
76448;BME280;65284;51.040;13.722;2023-04-30T09:51:56;100654.31;;;9.79;64.66
76448;BME280;65284;51.040;13.722;2023-04-30T09:54:25;100648.56;;;9.74;60.59
76448;BME280;65284;51.040;13.722;2023-04-30T09:56:53;100655.81;;;9.82;58.68
76448;BME280;65284;51.040;13.722;2023-04-30T09:59:22;100648.84;;;9.90;58.17
76448;BME280;65284;51.040;13.722;2023-04-30T10:01:53;100644.38;;;10.00;58.16
76448;BME280;65284;51.040;13.722;2023-04-30T10:04:20;100641.97;;;10.07;59.38
76448;BME280;65284;51.040;13.722;2023-04-30T10:06:51;100629.81;;;10.14;60.93
76448;BME280;65284;51.040;13.722;2023-04-30T10:09:20;100624.78;;;10.11;62.30
76448;BME280;65284;51.040;13.722;2023-04-30T10:11:49;100637.06;;;10.22;62.12
76448;BME280;65284;51.040;13.722;2023-04-30T10:14:16;100634.84;;;10.08;62.47
76448;BME280;65284;51.040;13.722;2023-04-30T10:16:56;100625.09;;;9.98;63.03
76448;BME280;65284;51.040;13.722;2023-04-30T10:19:30;100623.69;;;10.04;62.07
76448;BME280;65284;51.040;13.722;2023-04-30T10:21:58;100628.81;;;10.25;61.98
76448;BME280;65284;51.040;13.722;2023-04-30T10:24:25;100617.19;;;10.26;59.15
76448;BME280;65284;51.040;13.722;2023-04-30T10:26:52;100614.44;;;10.28;59.30
76448;BME280;65284;51.040;13.722;2023-04-30T10:29:20;100612.56;;;10.47;58.71
76448;BME280;65284;51.040;13.722;2023-04-30T10:31:48;100618.34;;;10.33;57.75
76448;BME280;65284;51.040;13.722;2023-04-30T10:37:38;100618.47;;;10.22;58.56
76448;BME280;65284;51.040;13.722;2023-04-30T10:40:04;100616.41;;;10.35;59.09
76448;BME280;65284;51.040;13.722;2023-04-30T10:42:33;100618.56;;;10.50;57.86
76448;BME280;65284;51.040;13.722;2023-04-30T10:45:01;100616.59;;;10.52;55.85
76448;BME280;65284;51.040;13.722;2023-04-30T10:47:28;100611.09;;;10.35;54.40
76448;BME280;65284;51.040;13.722;2023-04-30T10:50:08;100602.72;;;10.30;56.94
76448;BME280;65284;51.040;13.722;2023-04-30T10:52:37;100617.78;;;10.39;57.45
76448;BME280;65284;51.040;13.722;2023-04-30T10:55:07;100604.91;;;10.44;54.70
76448;BME280;65284;51.040;13.722;2023-04-30T10:57:41;100613.53;;;10.46;54.67
76448;BME280;65284;51.040;13.722;2023-04-30T11:02:42;100611.00;;;10.55;58.67
76448;BME280;65284;51.040;13.722;2023-04-30T11:05:11;100604.91;;;10.44;59.91
76448;BME280;65284;51.040;13.722;2023-04-30T11:07:46;100599.59;;;10.44;60.43
76448;BME280;65284;51.040;13.722;2023-04-30T11:10:14;100601.44;;;10.34;60.54
76448;BME280;65284;51.040;13.722;2023-04-30T11:12:47;100599.72;;;10.43;60.24
76448;BME280;65284;51.040;13.722;2023-04-30T11:15:16;100593.09;;;10.57;57.91
76448;BME280;65284;51.040;13.722;2023-04-30T11:17:44;100599.59;;;10.44;55.38
76448;BME280;65284;51.040;13.722;2023-04-30T11:20:12;100599.13;;;10.49;55.01
76448;BME280;65284;51.040;13.722;2023-04-30T11:22:39;100606.22;;;10.58;53.99
76448;BME280;65284;51.040;13.722;2023-04-30T11:25:08;100587.91;;;10.65;53.17
76448;BME280;65284;51.040;13.722;2023-04-30T11:27:36;100580.94;;;10.82;54.53
76448;BME280;65284;51.040;13.722;2023-04-30T11:30:09;100587.94;;;10.83;54.75
76448;BME280;65284;51.040;13.722;2023-04-30T11:32:37;100585.84;;;11.04;55.04
76448;BME280;65284;51.040;13.722;2023-04-30T11:35:05;100591.56;;;10.82;56.42
76448;BME280;65284;51.040;13.722;2023-04-30T11:37:34;100597.41;;;10.85;56.88
76448;BME280;65284;51.040;13.722;2023-04-30T11:40:02;100597.72;;;10.82;55.03
76448;BME280;65284;51.040;13.722;2023-04-30T11:42:29;100587.25;;;10.81;54.44
76448;BME280;65284;51.040;13.722;2023-04-30T11:45:05;100607.28;;;10.75;55.20
76448;BME280;65284;51.040;13.722;2023-04-30T11:50:19;100583.22;;;11.22;54.97
76448;BME280;65284;51.040;13.722;2023-04-30T11:52:48;100596.59;;;11.30;52.20
76448;BME280;65284;51.040;13.722;2023-04-30T11:55:17;100588.06;;;11.09;54.22
76448;BME280;65284;51.040;13.722;2023-04-30T11:57:45;100575.38;;;11.21;54.45
76448;BME280;65284;51.040;13.722;2023-04-30T12:00:17;100586.00;;;11.21;55.40
76448;BME280;65284;51.040;13.722;2023-04-30T12:02:46;100582.91;;;11.25;52.72
76448;BME280;65284;51.040;13.722;2023-04-30T12:05:21;100566.97;;;11.25;51.88
76448;BME280;65284;51.040;13.722;2023-04-30T12:08:09;100571.88;;;11.20;52.95
76448;BME280;65284;51.040;13.722;2023-04-30T12:10:36;100555.41;;;11.16;53.30
76448;BME280;65284;51.040;13.722;2023-04-30T12:13:02;100562.38;;;11.35;53.51
76448;BME280;65284;51.040;13.722;2023-04-30T12:15:29;100560.91;;;11.33;53.54
76448;BME280;65284;51.040;13.722;2023-04-30T12:17:57;100562.09;;;11.38;52.08
76448;BME280;65284;51.040;13.722;2023-04-30T12:20:25;100558.47;;;11.39;53.75
76448;BME280;65284;51.040;13.722;2023-04-30T12:22:53;100553.66;;;11.61;53.82
76448;BME280;65284;51.040;13.722;2023-04-30T12:25:20;100566.50;;;11.48;53.59
76448;BME280;65284;51.040;13.722;2023-04-30T12:27:49;100551.28;;;11.58;53.03
76448;BME280;65284;51.040;13.722;2023-04-30T12:30:21;100564.03;;;11.72;50.94
76448;BME280;65284;51.040;13.722;2023-04-30T12:32:50;100567.44;;;11.82;50.50
76448;BME280;65284;51.040;13.722;2023-04-30T12:35:19;100557.41;;;11.76;50.59
76448;BME280;65284;51.040;13.722;2023-04-30T12:37:49;100545.34;;;11.64;48.68
76448;BME280;65284;51.040;13.722;2023-04-30T12:40:18;100543.75;;;11.71;48.91
76448;BME280;65284;51.040;13.722;2023-04-30T12:42:45;100554.03;;;11.66;49.67
76448;BME280;65284;51.040;13.722;2023-04-30T12:47:59;100540.81;;;11.82;50.96
76448;BME280;65284;51.040;13.722;2023-04-30T12:50:26;100537.88;;;11.86;49.77
76448;BME280;65284;51.040;13.722;2023-04-30T12:52:52;100536.94;;;11.95;49.48
76448;BME280;65284;51.040;13.722;2023-04-30T12:55:20;100537.75;;;12.13;49.50
76448;BME280;65284;51.040;13.722;2023-04-30T12:58:06;100525.69;;;12.01;48.81
76448;BME280;65284;51.040;13.722;2023-04-30T13:00:48;100528.28;;;12.19;48.54
76448;BME280;65284;51.040;13.722;2023-04-30T13:03:20;100530.44;;;12.23;48.44
76448;BME280;65284;51.040;13.722;2023-04-30T13:05:49;100523.06;;;12.09;48.75
76448;BME280;65284;51.040;13.722;2023-04-30T13:08:17;100520.44;;;12.17;48.41
76448;BME280;65284;51.040;13.722;2023-04-30T13:10:44;100514.56;;;12.48;47.92
76448;BME280;65284;51.040;13.722;2023-04-30T13:13:12;100517.31;;;12.64;47.34
76448;BME280;65284;51.040;13.722;2023-04-30T13:15:39;100516.31;;;12.65;47.16